createdAt,value
2019-05-09T00:01:04.624Z,6.78
2019-05-09T00:06:01.735Z,6.84
2019-05-09T00:10:58.648Z,6.81
2019-05-09T00:15:55.650Z,6.83
2019-05-09T00:20:57.672Z,6.69
2019-05-09T00:25:54.596Z,6.69
2019-05-09T00:30:56.541Z,6.59
2019-05-09T00:35:53.492Z,6.65
2019-05-09T00:40:57.860Z,6.61
2019-05-09T00:46:00.064Z,6.53
2019-05-09T00:50:57.003Z,6.49
2019-05-09T00:55:53.957Z,6.36
2019-05-09T01:00:53.171Z,6.44
2019-05-09T01:05:49.923Z,6.38
2019-05-09T01:10:48.223Z,6.29
2019-05-09T01:15:45.216Z,6.19
2019-05-09T01:20:44.064Z,6.27
2019-05-09T01:25:41.042Z,6.22
2019-05-09T01:30:38.050Z,6.21
2019-05-09T01:35:35.034Z,6.18
2019-05-09T01:40:33.192Z,6.18
2019-05-09T01:45:30.344Z,6.16
2019-05-09T01:50:27.281Z,6.13
2019-05-09T01:55:45.114Z,6.09
2019-05-09T02:00:43.590Z,5.90
2019-05-09T02:05:43.316Z,5.96
2019-05-09T02:10:39.944Z,6.03
2019-05-09T02:15:38.001Z,5.89
2019-05-09T02:20:34.925Z,5.91
2019-05-09T02:25:33.538Z,5.80
2019-05-09T02:30:30.722Z,5.77
2019-05-09T02:35:31.489Z,5.63
2019-05-09T02:40:28.537Z,5.72
2019-05-09T02:45:28.407Z,5.69
2019-05-09T02:50:28.384Z,5.76
2019-05-09T02:55:24.580Z,5.75
2019-05-09T03:00:29.147Z,5.77
2019-05-09T03:05:29.426Z,5.80
2019-05-09T03:10:24.996Z,5.82
2019-05-09T03:15:21.973Z,5.82
2019-05-09T03:20:39.230Z,5.75
2019-05-09T03:25:36.524Z,5.87
2019-05-09T03:30:39.803Z,5.86
2019-05-09T03:35:37.854Z,6.02
2019-05-09T03:40:37.753Z,6.09
2019-05-09T03:45:39.718Z,6.17
2019-05-09T03:50:38.277Z,6.20
2019-05-09T03:55:38.374Z,6.21
2019-05-09T04:00:37.452Z,6.35
2019-05-09T04:05:34.010Z,6.64
2019-05-09T04:10:30.974Z,7.02
2019-05-09T04:15:28.267Z,7.31
2019-05-09T04:20:27.578Z,7.55
2019-05-09T04:25:27.328Z,7.62
2019-05-09T04:30:24.531Z,8.00
2019-05-09T04:35:21.610Z,8.30
2019-05-09T04:40:18.658Z,8.66
2019-05-09T04:45:33.096Z,8.85
2019-05-09T04:50:29.941Z,9.22
2019-05-09T04:55:28.876Z,9.63
2019-05-09T05:00:27.648Z,10.15
2019-05-09T05:05:24.619Z,10.55
2019-05-09T05:10:21.586Z,11.19
2019-05-09T05:15:20.469Z,12.00
2019-05-09T05:20:19.192Z,12.79
2019-05-09T05:25:18.495Z,13.64
2019-05-09T05:30:17.836Z,14.08
2019-05-09T05:35:14.393Z,14.75
2019-05-09T05:40:11.655Z,15.03
2019-05-09T05:45:10.911Z,15.43
2019-05-09T05:50:08.514Z,15.75
2019-05-09T05:55:07.649Z,16.45
2019-05-09T06:00:07.830Z,17.10
2019-05-09T06:05:08.450Z,17.55
2019-05-09T06:10:08.071Z,17.31
2019-05-09T06:15:08.918Z,18.23
2019-05-09T06:20:08.953Z,18.12
2019-05-09T06:25:10.254Z,18.17
2019-05-09T06:30:10.203Z,17.74
2019-05-09T06:35:08.364Z,17.46
2019-05-09T06:40:08.215Z,17.79
2019-05-09T06:45:07.818Z,17.88
2019-05-09T06:50:08.928Z,18.21
2019-05-09T06:55:08.474Z,17.77
2019-05-09T07:00:08.398Z,17.83
2019-05-09T07:05:22.300Z,17.73
2019-05-09T07:10:19.316Z,17.97
2019-05-09T07:15:17.733Z,18.45
2019-05-09T07:20:18.315Z,18.71
2019-05-09T07:25:21.875Z,19.32
2019-05-09T07:30:31.491Z,19.35
2019-05-09T07:35:28.808Z,19.98
2019-05-09T07:40:30.242Z,19.87
2019-05-09T07:45:24.800Z,19.52
2019-05-09T07:50:21.923Z,19.83
2019-05-09T07:55:22.747Z,19.68
2019-05-09T08:00:35.221Z,19.99
2019-05-09T08:05:35.168Z,19.15
2019-05-09T08:10:38.488Z,19.88
2019-05-09T08:15:33.010Z,20.39
2019-05-09T08:20:32.005Z,20.98
2019-05-09T08:25:30.939Z,20.86
2019-05-09T08:30:37.429Z,20.93
2019-05-09T08:35:31.168Z,21.32
2019-05-09T08:40:37.920Z,20.81
2019-05-09T08:45:31.642Z,20.97
2019-05-09T08:50:38.925Z,20.31
2019-05-09T08:55:40.171Z,19.91
2019-05-09T09:00:34.759Z,19.99
2019-05-09T09:05:34.730Z,19.91
2019-05-09T09:10:31.743Z,19.86
2019-05-09T09:16:05.134Z,19.91
2019-05-09T09:20:41.887Z,20.70
2019-05-09T09:25:41.000Z,21.75
2019-05-09T09:30:40.186Z,21.09
2019-05-09T09:35:43.383Z,20.95
2019-05-09T09:40:38.607Z,21.13
2019-05-09T09:45:38.035Z,20.91
2019-05-09T09:50:35.311Z,21.11
2019-05-09T09:55:40.997Z,20.80
2019-05-09T10:00:43.515Z,20.97
2019-05-09T10:05:40.603Z,20.89
2019-05-09T10:10:43.411Z,20.75
2019-05-09T10:15:49.173Z,20.53
2019-05-09T10:20:45.496Z,19.78
2019-05-09T10:25:44.443Z,19.49
2019-05-09T10:30:45.238Z,19.71
2019-05-09T10:35:47.763Z,18.97
2019-05-09T10:40:48.285Z,19.45
2019-05-09T10:46:04.698Z,20.21
2019-05-09T10:51:05.443Z,20.05
2019-05-09T10:56:08.645Z,20.08
2019-05-09T11:01:19.307Z,20.34
2019-05-09T11:06:24.516Z,20.51
2019-05-09T11:11:28.494Z,20.55
2019-05-09T11:16:41.289Z,20.24
2019-05-09T11:21:29.078Z,20.08
2019-05-09T11:26:28.599Z,19.94
2019-05-09T11:31:25.629Z,19.81
2019-05-09T11:36:24.569Z,19.79
2019-05-09T11:41:21.809Z,20.41
2019-05-09T11:46:20.199Z,19.94
2019-05-09T11:51:19.198Z,19.66
2019-05-09T11:56:18.328Z,19.98
2019-05-09T12:01:19.072Z,19.05
2019-05-09T12:06:19.624Z,18.64
2019-05-09T12:11:21.683Z,18.28
2019-05-09T12:16:21.833Z,18.24
2019-05-09T12:21:19.516Z,18.43
2019-05-09T12:26:18.516Z,18.74
2019-05-09T12:31:28.649Z,18.80
2019-05-09T12:36:23.389Z,19.21
2019-05-09T12:41:20.520Z,18.23
2019-05-09T12:46:17.781Z,18.50
2019-05-09T12:51:18.363Z,18.42
2019-05-09T12:56:18.875Z,18.56
2019-05-09T13:01:18.768Z,17.71
2019-05-09T13:06:20.178Z,18.15
2019-05-09T13:11:20.209Z,17.81
2019-05-09T13:16:44.069Z,17.72
2019-05-09T13:21:34.337Z,17.76
2019-05-09T13:26:33.721Z,17.71
2019-05-09T13:31:39.893Z,18.01
2019-05-09T13:36:39.372Z,17.98
2019-05-09T13:41:39.283Z,17.90
2019-05-09T13:46:38.762Z,17.40
2019-05-09T13:51:47.190Z,16.96
2019-05-09T13:56:37.527Z,16.62
2019-05-09T14:01:37.613Z,16.92
2019-05-09T14:06:34.391Z,17.47
2019-05-09T14:11:31.940Z,17.79
2019-05-09T14:16:29.268Z,17.87
2019-05-09T14:21:26.332Z,17.43
2019-05-09T14:26:24.094Z,17.38
2019-05-09T14:31:21.259Z,17.11
2019-05-09T14:36:18.247Z,16.58
2019-05-09T14:41:15.777Z,16.16
2019-05-09T14:46:12.853Z,16.21
2019-05-09T14:51:09.896Z,16.39
2019-05-09T14:56:08.784Z,16.59
2019-05-09T15:01:08.384Z,16.45
2019-05-09T15:06:04.682Z,16.42
2019-05-09T15:11:03.608Z,16.23
2019-05-09T15:16:00.604Z,16.05
2019-05-09T15:20:58.187Z,15.92
2019-05-09T15:25:57.962Z,15.78
2019-05-09T15:30:54.430Z,15.63
2019-05-09T15:35:51.476Z,15.45
2019-05-09T15:40:48.501Z,15.47
2019-05-09T15:45:49.032Z,15.23
2019-05-09T15:50:47.686Z,15.27
2019-05-09T15:55:44.824Z,14.97
2019-05-09T16:00:41.755Z,14.97
2019-05-09T16:05:39.558Z,15.13
2019-05-09T16:10:37.389Z,14.88
2019-05-09T16:15:34.828Z,15.01
2019-05-09T16:20:37.763Z,15.08
2019-05-09T16:25:31.382Z,15.04
2019-05-09T16:30:28.450Z,15.11
2019-05-09T16:35:25.504Z,15.13
2019-05-09T16:40:22.444Z,14.90
2019-05-09T16:45:19.447Z,15.08
2019-05-09T16:50:18.089Z,15.07
2019-05-09T16:55:32.118Z,15.01
2019-05-09T17:00:34.593Z,15.12
2019-05-09T17:05:31.889Z,14.95
2019-05-09T17:10:29.031Z,14.97
2019-05-09T17:15:26.333Z,14.91
2019-05-09T17:20:31.422Z,14.85
2019-05-09T17:25:28.454Z,14.64
2019-05-09T17:30:28.465Z,14.67
2019-05-09T17:35:24.552Z,14.53
2019-05-09T17:40:21.625Z,14.34
2019-05-09T17:45:18.770Z,14.43
2019-05-09T17:50:18.463Z,14.43
2019-05-09T17:55:15.040Z,14.24
2019-05-09T18:00:13.542Z,14.22
2019-05-09T18:05:10.647Z,14.16
2019-05-09T18:10:07.926Z,14.11
2019-05-09T18:15:08.726Z,14.01
2019-05-09T18:20:08.071Z,13.96
2019-05-09T18:25:08.225Z,13.92
2019-05-09T18:30:06.118Z,13.84
2019-05-09T18:35:08.108Z,13.81
2019-05-09T18:40:05.352Z,13.83
2019-05-09T18:45:03.914Z,13.68
2019-05-09T18:50:01.228Z,13.68
2019-05-09T18:54:59.577Z,13.56
2019-05-09T18:59:56.983Z,13.64
2019-05-09T19:04:54.018Z,13.56
2019-05-09T19:09:50.968Z,13.56
2019-05-09T19:14:48.322Z,13.50
2019-05-09T19:20:04.205Z,13.36
2019-05-09T19:25:02.907Z,13.46
2019-05-09T19:29:59.968Z,13.43
2019-05-09T19:34:56.891Z,13.27
2019-05-09T19:39:53.898Z,13.23
2019-05-09T19:44:50.832Z,13.10
2019-05-09T19:49:47.921Z,13.05
2019-05-09T19:54:44.936Z,13.13
2019-05-09T19:59:43.095Z,13.11
2019-05-09T20:04:40.136Z,13.07
2019-05-09T20:09:41.818Z,13.05
2019-05-09T20:14:40.857Z,13.08
2019-05-09T20:19:38.233Z,12.95
2019-05-09T20:24:35.544Z,13.06
2019-05-09T20:29:32.762Z,13.06
2019-05-09T20:34:29.895Z,12.93
2019-05-09T20:39:26.996Z,12.84
2019-05-09T20:44:24.070Z,13.03
2019-05-09T20:49:21.194Z,12.98
2019-05-09T20:54:21.120Z,12.89
2019-05-09T20:59:17.241Z,12.90
2019-05-09T21:04:14.322Z,13.01
2019-05-09T21:09:11.401Z,12.94
2019-05-09T21:14:08.460Z,12.85
2019-05-09T21:19:05.864Z,12.86
2019-05-09T21:24:02.838Z,12.75
2019-05-09T21:28:59.892Z,12.81
2019-05-09T21:33:56.843Z,12.74
2019-05-09T21:38:54.229Z,12.67
2019-05-09T21:43:51.166Z,12.75
2019-05-09T21:48:48.132Z,12.73
2019-05-09T21:53:45.162Z,12.63
2019-05-09T21:58:42.622Z,12.60
2019-05-09T22:03:39.677Z,12.73
2019-05-09T22:08:36.741Z,12.76
2019-05-09T22:13:33.756Z,12.68
2019-05-09T22:18:30.814Z,12.73
2019-05-09T22:23:27.803Z,12.72
2019-05-09T22:28:24.887Z,12.70
2019-05-09T22:33:21.826Z,12.69
2019-05-09T22:38:18.883Z,12.52
2019-05-09T22:43:15.835Z,12.66
2019-05-09T22:48:12.812Z,12.63
2019-05-09T22:53:09.761Z,12.60
2019-05-09T22:58:07.015Z,12.67
2019-05-09T23:03:04.123Z,12.58
2019-05-09T23:08:01.111Z,12.57
2019-05-09T23:12:58.175Z,12.51
2019-05-09T23:17:55.172Z,12.59
2019-05-09T23:22:52.094Z,12.64
2019-05-09T23:27:49.063Z,12.55
2019-05-09T23:32:46.509Z,12.69
2019-05-09T23:37:44.340Z,12.55
2019-05-09T23:42:41.262Z,12.54
2019-05-09T23:47:38.273Z,12.46
2019-05-09T23:52:35.190Z,12.57
2019-05-09T23:57:50.905Z,12.64
